Mount Hope, Ohio
Current Conditions -  °F | °C
As of 3:56 AM on Friday 19 Dec 2014 (Local Time) from KBJJ Reporting Station
Haze Haze  
Wind Chill: 21°   Ceiling: 700
Heat Index: 28°   Visibility: 6mi
Dew Point: 26°   Wind: 7mph
Humidity: 92%   Direction: 290°WNW
Pressure: 30.17"   Gusts: NA
Location:  40.62°N, 81.78°W
Report Text: KBJJ 190856Z AUTO 29006KT 6SM BR OVC007 M02/M03 A3017 RMK AO2 SLP232 T10221033 50004 TSNO
Loading
Personal Weather Stations






























Interactive Weather Map New forecast layout! Learn more

10-Day Weather Forecast

Advertisements
Track Severe Weather on mobile